createdAt,value
2018-10-11T00:00:02.783Z,84.08
2018-10-11T00:02:29.694Z,83.28
2018-10-11T00:04:56.643Z,82.34
2018-10-11T00:07:23.987Z,81.19
2018-10-11T00:09:51.043Z,80.15
2018-10-11T00:12:18.906Z,80.48
2018-10-11T00:14:45.851Z,79.61
2018-10-11T00:17:12.799Z,78.78
2018-10-11T00:19:39.739Z,79.91
2018-10-11T00:22:06.751Z,80.05
2018-10-11T00:24:33.626Z,79.44
2018-10-11T00:27:00.583Z,80.04
2018-10-11T00:29:27.514Z,80.95
2018-10-11T00:31:54.465Z,80.67
2018-10-11T00:34:21.415Z,80.20
2018-10-11T00:36:48.270Z,82.54
2018-10-11T00:39:15.130Z,83.48
2018-10-11T00:41:42.055Z,83.82
2018-10-11T00:44:09.079Z,83.57
2018-10-11T00:46:36.037Z,82.89
2018-10-11T00:49:03.027Z,82.64
2018-10-11T00:51:29.959Z,81.67
2018-10-11T00:53:56.861Z,82.84
2018-10-11T00:56:23.798Z,81.97
2018-10-11T00:58:50.761Z,82.04
2018-10-11T01:01:17.687Z,82.31
2018-10-11T01:03:44.566Z,82.39
2018-10-11T01:06:11.486Z,82.71
2018-10-11T01:08:38.374Z,82.04
2018-10-11T01:11:05.239Z,81.84
2018-10-11T01:13:32.118Z,81.87
2018-10-11T01:15:58.950Z,81.83
2018-10-11T01:18:26.110Z,83.72
2018-10-11T01:20:53.262Z,83.51
2018-10-11T01:23:20.205Z,83.42
2018-10-11T01:25:47.039Z,83.28
2018-10-11T01:28:13.972Z,82.45
2018-10-11T01:30:46.570Z,83.48
2018-10-11T01:33:13.519Z,82.66
2018-10-11T01:35:40.455Z,82.32
2018-10-11T01:38:07.395Z,81.29
2018-10-11T01:40:34.243Z,82.22
2018-10-11T01:43:04.261Z,83.06
2018-10-11T01:45:31.205Z,83.79
2018-10-11T01:47:58.106Z,84.44
2018-10-11T01:50:25.014Z,84.03
2018-10-11T01:52:51.926Z,82.91
2018-10-11T01:55:18.786Z,82.64
2018-10-11T01:57:45.723Z,84.22
2018-10-11T02:00:12.578Z,84.27
2018-10-11T02:02:39.506Z,84.41
2018-10-11T02:05:06.708Z,84.36
2018-10-11T02:07:33.597Z,82.97
2018-10-11T02:10:00.447Z,83.89
2018-10-11T02:12:27.290Z,82.74
2018-10-11T02:14:54.156Z,82.42
2018-10-11T02:17:20.995Z,82.56
2018-10-11T02:19:47.838Z,82.28
2018-10-11T02:22:14.675Z,82.55
2018-10-11T02:24:41.606Z,81.21
2018-10-11T02:27:08.498Z,83.07
2018-10-11T02:29:36.338Z,84.24
2018-10-11T02:32:03.436Z,85.03
2018-10-11T02:34:30.218Z,84.40
2018-10-11T02:36:57.142Z,83.11
2018-10-11T02:39:24.003Z,83.38
2018-10-11T02:41:50.939Z,81.91
2018-10-11T02:44:17.774Z,83.26
2018-10-11T02:46:44.626Z,83.26
2018-10-11T02:49:11.459Z,84.62
2018-10-11T02:51:38.319Z,85.01
2018-10-11T02:54:05.702Z,84.73
2018-10-11T02:56:32.603Z,83.24
2018-10-11T02:59:10.939Z,82.89
2018-10-11T03:01:37.859Z,83.97
2018-10-11T03:04:05.319Z,85.76
2018-10-11T03:06:36.160Z,84.80
2018-10-11T03:09:04.423Z,85.79
2018-10-11T03:11:31.278Z,85.30
2018-10-11T03:13:58.210Z,85.88
2018-10-11T03:16:25.063Z,84.48
2018-10-11T03:18:52.003Z,85.02
2018-10-11T03:21:18.855Z,84.17
2018-10-11T03:23:45.791Z,84.25
2018-10-11T03:26:12.637Z,83.87
2018-10-11T03:28:39.579Z,84.73
2018-10-11T03:31:06.519Z,84.45
2018-10-11T03:33:33.378Z,84.19
2018-10-11T03:36:00.332Z,84.63
2018-10-11T03:38:27.255Z,85.04
2018-10-11T03:40:54.087Z,84.61
2018-10-11T03:43:20.939Z,84.95
2018-10-11T03:45:47.786Z,85.92
2018-10-11T03:48:14.647Z,86.61
2018-10-11T03:50:41.578Z,86.13
2018-10-11T03:53:08.510Z,86.51
2018-10-11T03:55:35.394Z,86.20
2018-10-11T03:58:02.303Z,86.35
2018-10-11T04:00:29.154Z,85.55
2018-10-11T04:02:56.090Z,86.18
2018-10-11T04:05:22.972Z,86.54
2018-10-11T04:07:49.877Z,86.54
2018-10-11T04:10:16.702Z,86.89
2018-10-11T04:12:43.562Z,86.85
2018-10-11T04:15:10.426Z,87.27
2018-10-11T04:17:37.351Z,87.90
2018-10-11T04:20:04.347Z,89.01
2018-10-11T04:22:31.234Z,89.91
2018-10-11T04:24:58.090Z,86.09
2018-10-11T04:27:25.030Z,85.97
2018-10-11T04:29:51.893Z,86.01
2018-10-11T04:32:18.722Z,85.54
2018-10-11T04:34:45.656Z,85.23
2018-10-11T04:37:12.478Z,85.25
2018-10-11T04:39:39.466Z,84.88
2018-10-11T04:42:06.818Z,84.56
2018-10-11T04:44:34.471Z,85.61
2018-10-11T04:47:02.079Z,86.14
2018-10-11T04:49:28.976Z,85.22
2018-10-11T04:51:55.801Z,85.28
2018-10-11T04:54:22.655Z,85.06
2018-10-11T04:56:49.618Z,84.86
2018-10-11T04:59:16.525Z,84.53
2018-10-11T05:01:43.395Z,84.16
2018-10-11T05:04:10.318Z,84.12
2018-10-11T05:06:37.174Z,83.83
2018-10-11T05:09:04.811Z,84.97
2018-10-11T05:11:31.631Z,85.51
2018-10-11T05:13:58.538Z,85.57
2018-10-11T05:16:25.463Z,86.11
2018-10-11T05:18:56.142Z,86.81
2018-10-11T05:23:49.870Z,87.20
2018-10-11T05:26:16.828Z,89.83
2018-10-11T05:28:44.551Z,88.13
2018-10-11T05:31:11.515Z,87.00
2018-10-11T05:33:38.995Z,88.82
2018-10-11T05:36:05.834Z,89.46
2018-10-11T05:38:32.778Z,89.26
2018-10-11T05:40:59.618Z,87.37
2018-10-11T05:43:26.740Z,88.01
2018-10-11T05:45:56.510Z,88.44
2018-10-11T05:48:24.342Z,88.52
2018-10-11T05:50:51.194Z,88.14
2018-10-11T05:53:18.123Z,89.38
2018-10-11T05:55:44.970Z,87.59
2018-10-11T05:58:11.830Z,87.76
2018-10-11T06:00:38.662Z,87.89
2018-10-11T06:03:05.622Z,87.09
2018-10-11T06:05:32.546Z,87.76
2018-10-11T06:08:00.289Z,87.37
2018-10-11T06:10:28.081Z,87.31
2018-10-11T06:12:55.309Z,86.04
2018-10-11T06:15:22.163Z,85.71
2018-10-11T06:17:49.063Z,85.83
2018-10-11T06:20:15.863Z,85.41
2018-10-11T06:22:42.803Z,85.50
2018-10-11T06:25:10.255Z,85.18
2018-10-11T06:27:37.114Z,86.01
2018-10-11T06:30:04.319Z,85.71
2018-10-11T06:32:31.088Z,85.15
2018-10-11T06:34:57.937Z,85.85
2018-10-11T06:37:24.884Z,85.69
2018-10-11T06:39:51.727Z,85.38
2018-10-11T06:42:18.744Z,85.91
2018-10-11T06:44:45.604Z,85.89
2018-10-11T06:47:14.667Z,85.22
2018-10-11T06:49:41.565Z,85.87
2018-10-11T06:52:09.394Z,83.73
2018-10-11T06:54:36.255Z,84.74
2018-10-11T06:57:03.131Z,84.83
2018-10-11T06:59:30.063Z,84.25
2018-10-11T07:01:57.069Z,84.33
2018-10-11T07:04:23.872Z,84.57
2018-10-11T07:06:50.799Z,85.62
2018-10-11T07:09:17.731Z,85.46
2018-10-11T07:11:44.686Z,85.47
2018-10-11T07:14:11.622Z,85.02
2018-10-11T07:16:38.563Z,84.88
2018-10-11T07:19:05.427Z,84.57
2018-10-11T07:21:32.419Z,84.79
2018-10-11T07:23:59.296Z,84.12
2018-10-11T07:26:26.239Z,83.13
2018-10-11T07:28:53.075Z,82.62
2018-10-11T07:31:19.939Z,82.59
2018-10-11T07:33:46.866Z,83.00
2018-10-11T07:36:13.711Z,82.90
2018-10-11T07:38:40.559Z,83.44
2018-10-11T07:41:07.588Z,82.62
2018-10-11T07:43:34.442Z,82.52
2018-10-11T07:46:01.283Z,82.18
2018-10-11T07:48:28.129Z,81.90
2018-10-11T07:50:54.991Z,81.74
2018-10-11T07:53:21.919Z,82.57
2018-10-11T07:55:48.762Z,81.85
2018-10-11T07:58:15.695Z,81.12
2018-10-11T08:00:42.543Z,80.89
2018-10-11T08:03:09.407Z,81.61
2018-10-11T08:05:36.330Z,80.37
2018-10-11T08:08:03.167Z,80.07
2018-10-11T08:10:30.080Z,79.45
2018-10-11T08:12:56.979Z,78.88
2018-10-11T08:15:24.215Z,80.05
2018-10-11T08:17:51.503Z,79.95
2018-10-11T08:20:18.128Z,79.21
2018-10-11T08:22:44.942Z,78.98
2018-10-11T08:25:11.896Z,77.54
2018-10-11T08:27:38.634Z,78.02
2018-10-11T08:30:05.779Z,76.54
2018-10-11T08:32:32.840Z,76.11
2018-10-11T08:34:59.563Z,75.88
2018-10-11T08:37:26.444Z,75.36
2018-10-11T08:39:53.231Z,75.56
2018-10-11T08:42:20.115Z,75.27
2018-10-11T08:44:47.038Z,74.91
2018-10-11T08:47:13.882Z,74.50
2018-10-11T08:49:40.866Z,75.44
2018-10-11T08:52:07.790Z,75.32
2018-10-11T08:54:40.454Z,73.50
2018-10-11T08:57:07.395Z,73.45
2018-10-11T08:59:34.312Z,73.86
2018-10-11T09:02:01.193Z,72.78
2018-10-11T09:04:28.138Z,70.70
2018-10-11T09:06:55.110Z,70.02
2018-10-11T09:09:22.087Z,70.22
2018-10-11T09:11:49.081Z,70.08
2018-10-11T09:14:16.879Z,68.51
2018-10-11T09:16:43.849Z,67.94
2018-10-11T09:19:10.827Z,70.06
2018-10-11T09:21:37.702Z,67.65
2018-10-11T09:24:04.602Z,66.47
2018-10-11T09:26:31.500Z,66.97
2018-10-11T09:28:58.406Z,65.96
2018-10-11T09:31:25.348Z,65.61
2018-10-11T09:33:52.290Z,66.37
2018-10-11T09:36:19.260Z,65.33
2018-10-11T09:38:46.175Z,64.25
2018-10-11T09:41:13.035Z,64.24
2018-10-11T09:43:39.963Z,64.83
2018-10-11T09:46:06.902Z,65.50
2018-10-11T09:48:33.785Z,66.22
2018-10-11T09:51:00.702Z,66.19
2018-10-11T09:53:27.634Z,66.18
2018-10-11T09:55:54.498Z,66.32
2018-10-11T09:58:21.427Z,65.12
2018-10-11T10:00:54.051Z,66.81
2018-10-11T10:03:20.970Z,67.62
2018-10-11T10:05:47.899Z,69.94
2018-10-11T10:08:14.738Z,71.02
2018-10-11T10:10:41.687Z,70.97
2018-10-11T10:13:08.526Z,69.67
2018-10-11T10:15:35.504Z,69.80
2018-10-11T10:18:02.335Z,68.59
2018-10-11T10:20:29.254Z,68.21
2018-10-11T10:22:56.138Z,65.55
2018-10-11T10:25:23.047Z,65.35
2018-10-11T10:27:49.987Z,64.38
2018-10-11T10:30:22.643Z,66.84
2018-10-11T10:32:49.507Z,66.77
2018-10-11T10:35:16.371Z,65.84
2018-10-11T10:37:43.303Z,67.33
2018-10-11T10:40:10.239Z,66.70
2018-10-11T10:42:37.131Z,64.88
2018-10-11T10:45:04.631Z,65.39
2018-10-11T10:47:31.498Z,67.07
2018-10-11T10:49:58.451Z,65.78
2018-10-11T10:52:25.402Z,64.40
2018-10-11T10:54:52.392Z,63.52
2018-10-11T10:57:19.310Z,62.75
2018-10-11T10:59:46.218Z,61.26
2018-10-11T11:02:13.160Z,61.28
2018-10-11T11:04:40.106Z,61.41
2018-10-11T11:07:07.101Z,61.48
2018-10-11T11:09:34.010Z,60.32
2018-10-11T11:12:00.986Z,61.27
2018-10-11T11:14:27.880Z,61.26
2018-10-11T11:16:54.723Z,61.68
2018-10-11T11:19:21.570Z,60.19
2018-10-11T11:21:48.519Z,59.92
2018-10-11T11:24:15.462Z,60.38
2018-10-11T11:26:42.402Z,61.40
2018-10-11T11:29:09.243Z,62.77
2018-10-11T11:31:36.198Z,61.23
2018-10-11T11:34:03.338Z,60.08
2018-10-11T11:36:30.316Z,61.71
2018-10-11T11:38:57.227Z,61.99
2018-10-11T11:41:24.075Z,62.62
2018-10-11T11:43:51.007Z,63.88
2018-10-11T11:46:17.896Z,63.68
2018-10-11T11:48:44.799Z,63.15
2018-10-11T11:51:12.462Z,63.61
2018-10-11T11:53:40.262Z,62.18
2018-10-11T11:56:07.214Z,61.82
2018-10-11T11:58:34.124Z,61.71
2018-10-11T12:01:01.059Z,63.16
2018-10-11T12:03:27.918Z,62.53
2018-10-11T12:05:54.856Z,62.71
2018-10-11T12:08:21.711Z,62.66
2018-10-11T12:10:48.593Z,61.93
2018-10-11T12:13:15.498Z,62.05
2018-10-11T12:15:43.343Z,62.08
2018-10-11T12:18:10.495Z,63.15
2018-10-11T12:20:38.479Z,63.22
2018-10-11T12:23:06.336Z,63.52
2018-10-11T12:25:33.509Z,62.48
2018-10-11T12:28:00.455Z,61.93
2018-10-11T12:30:27.392Z,62.04
2018-10-11T12:32:54.362Z,60.61
2018-10-11T12:35:22.283Z,61.53
2018-10-11T12:37:49.221Z,61.81
2018-10-11T12:40:16.398Z,61.19
2018-10-11T12:42:43.334Z,61.66
2018-10-11T12:45:11.124Z,61.89
2018-10-11T12:47:38.238Z,60.54
2018-10-11T12:50:05.816Z,61.33
2018-10-11T12:52:32.660Z,61.46
2018-10-11T12:54:59.648Z,62.41
2018-10-11T12:57:26.497Z,62.93
2018-10-11T12:59:53.390Z,61.78
2018-10-11T13:02:20.323Z,61.75
2018-10-11T13:04:47.583Z,60.47
2018-10-11T13:07:14.498Z,60.61
2018-10-11T13:09:41.547Z,60.79
2018-10-11T13:12:08.520Z,62.19
2018-10-11T13:14:35.487Z,62.16
2018-10-11T13:17:02.372Z,62.03
2018-10-11T13:19:29.312Z,61.46
2018-10-11T13:21:56.195Z,60.77
2018-10-11T13:24:23.173Z,60.72
2018-10-11T13:26:50.159Z,60.17
2018-10-11T13:29:17.196Z,61.54
2018-10-11T13:31:44.366Z,61.95
2018-10-11T13:34:11.272Z,60.35
2018-10-11T13:36:38.275Z,59.60
2018-10-11T13:39:05.711Z,59.54
2018-10-11T13:41:34.701Z,59.37
2018-10-11T13:44:01.664Z,59.72
2018-10-11T13:46:28.783Z,59.63
2018-10-11T13:48:55.640Z,59.47
2018-10-11T13:51:22.592Z,61.28
2018-10-11T13:53:53.131Z,61.79
2018-10-11T13:56:16.442Z,61.34
2018-10-11T13:58:43.364Z,60.91
2018-10-11T14:01:10.287Z,61.13
2018-10-11T14:03:37.262Z,62.15
2018-10-11T14:06:04.163Z,62.39
2018-10-11T14:08:31.143Z,63.09
2018-10-11T14:10:58.995Z,62.90
2018-10-11T14:13:25.972Z,63.72
2018-10-11T14:15:52.845Z,63.20
2018-10-11T14:18:19.791Z,62.83
2018-10-11T14:20:46.655Z,62.29
2018-10-11T14:23:13.591Z,62.96
2018-10-11T14:25:40.555Z,62.47
2018-10-11T14:28:07.487Z,62.45
2018-10-11T14:30:34.448Z,61.43
2018-10-11T14:33:01.440Z,63.84
2018-10-11T14:35:28.418Z,63.59
2018-10-11T14:37:55.351Z,63.97
2018-10-11T14:40:22.231Z,64.64
2018-10-11T14:42:49.186Z,64.01
2018-10-11T14:45:16.472Z,64.32
2018-10-11T14:47:43.660Z,64.22
2018-10-11T14:50:10.515Z,66.73
2018-10-11T14:52:37.473Z,66.27
2018-10-11T14:55:04.343Z,66.23
2018-10-11T14:57:31.245Z,66.92
2018-10-11T14:59:58.251Z,66.99
2018-10-11T15:02:27.135Z,67.47
2018-10-11T15:04:54.011Z,68.70
2018-10-11T15:07:23.011Z,69.36
2018-10-11T15:09:49.966Z,68.41
2018-10-11T15:12:20.292Z,66.92
2018-10-11T15:14:47.187Z,67.78
2018-10-11T15:17:14.171Z,67.50
2018-10-11T15:19:41.031Z,68.07
2018-10-11T15:22:08.043Z,67.08
2018-10-11T15:24:35.002Z,67.37
2018-10-11T15:27:02.505Z,67.71
2018-10-11T15:29:29.926Z,67.60
2018-10-11T15:31:56.841Z,67.42
2018-10-11T15:34:27.908Z,67.39
2018-10-11T15:36:58.307Z,67.36
2018-10-11T15:39:25.292Z,64.74
2018-10-11T15:41:52.227Z,66.56
2018-10-11T15:44:19.171Z,65.61
2018-10-11T15:46:47.286Z,67.59
2018-10-11T15:49:14.229Z,67.62
2018-10-11T15:51:41.180Z,67.01
2018-10-11T15:54:08.141Z,66.83
2018-10-11T15:56:35.066Z,67.01
2018-10-11T15:59:02.034Z,67.91
2018-10-11T16:01:29.007Z,66.80
2018-10-11T16:03:55.970Z,67.10
2018-10-11T16:06:22.827Z,65.53
2018-10-11T16:08:50.224Z,66.20
2018-10-11T16:11:17.095Z,64.84
2018-10-11T16:13:44.095Z,65.01
2018-10-11T16:16:11.088Z,64.48
2018-10-11T16:18:38.010Z,64.72
2018-10-11T16:21:08.746Z,66.01
2018-10-11T16:23:36.250Z,65.48
2018-10-11T16:26:03.227Z,64.45
2018-10-11T16:28:30.184Z,64.99
2018-10-11T16:30:57.055Z,65.25
2018-10-11T16:33:24.019Z,65.80
2018-10-11T16:35:51.872Z,66.15
2018-10-11T16:38:18.817Z,66.38
2018-10-11T16:40:45.855Z,67.13
2018-10-11T16:43:12.752Z,67.42
2018-10-11T16:45:39.633Z,67.13
2018-10-11T16:48:06.558Z,67.75
2018-10-11T16:50:33.438Z,67.75
2018-10-11T16:53:01.120Z,65.93
2018-10-11T16:55:28.124Z,68.02
2018-10-11T16:57:55.098Z,69.44
2018-10-11T17:00:22.028Z,69.96
2018-10-11T17:02:48.903Z,70.45
2018-10-11T17:05:15.867Z,69.84
2018-10-11T17:07:42.793Z,70.96
2018-10-11T17:10:09.707Z,70.45
2018-10-11T17:12:37.032Z,70.95
2018-10-11T17:15:04.147Z,71.95
2018-10-11T17:17:32.061Z,71.06
2018-10-11T17:20:01.000Z,72.17
2018-10-11T17:22:27.855Z,71.74
2018-10-11T17:24:54.812Z,72.91
2018-10-11T17:27:21.711Z,72.03
2018-10-11T17:29:48.739Z,71.97
2018-10-11T17:32:15.575Z,71.81
2018-10-11T17:34:42.491Z,73.10
2018-10-11T17:37:09.396Z,73.39
2018-10-11T17:39:36.293Z,74.53
2018-10-11T17:42:03.177Z,74.92
2018-10-11T17:44:31.035Z,74.01
2018-10-11T17:47:01.039Z,73.71
2018-10-11T17:49:28.025Z,74.70
2018-10-11T17:51:54.875Z,74.43
2018-10-11T17:54:21.839Z,75.24
2018-10-11T17:56:48.752Z,74.29
2018-10-11T17:59:15.595Z,74.56
2018-10-11T18:01:42.551Z,74.75
2018-10-11T18:04:09.455Z,74.20
2018-10-11T18:06:36.311Z,75.98
2018-10-11T18:09:04.208Z,76.71
2018-10-11T18:11:31.143Z,77.01
2018-10-11T18:13:58.040Z,76.42
2018-10-11T18:16:25.042Z,76.53
2018-10-11T18:18:51.883Z,76.27
2018-10-11T18:21:18.823Z,75.67
2018-10-11T18:23:45.751Z,77.14
2018-10-11T18:26:12.668Z,77.65
2018-10-11T18:28:39.539Z,79.08
2018-10-11T18:31:06.891Z,80.03
2018-10-11T18:33:33.844Z,78.69
2018-10-11T18:36:00.789Z,78.41
2018-10-11T18:38:27.760Z,77.68
2018-10-11T18:40:55.711Z,77.41
2018-10-11T18:43:22.619Z,77.14
2018-10-11T18:45:49.564Z,77.56
2018-10-11T18:48:16.556Z,77.02
2018-10-11T18:50:43.576Z,77.24
2018-10-11T18:53:10.709Z,77.45
2018-10-11T18:55:37.642Z,78.31
2018-10-11T18:58:04.513Z,78.56
2018-10-11T19:00:31.543Z,81.25
2018-10-11T19:02:58.458Z,80.67
2018-10-11T19:05:25.425Z,78.05
2018-10-11T19:07:52.298Z,78.32
2018-10-11T19:10:19.464Z,78.56
2018-10-11T19:12:46.343Z,78.48
2018-10-11T19:15:13.233Z,79.03
2018-10-11T19:17:40.186Z,80.55
2018-10-11T19:20:11.447Z,79.69
2018-10-11T19:22:38.322Z,81.81
2018-10-11T19:25:05.212Z,79.26
2018-10-11T19:27:32.200Z,80.47
2018-10-11T19:29:59.227Z,81.47
2018-10-11T19:32:26.103Z,79.53
2018-10-11T19:34:53.995Z,80.23
2018-10-11T19:37:20.983Z,80.84
2018-10-11T19:39:48.852Z,81.08
2018-10-11T19:42:15.823Z,79.80
2018-10-11T19:44:42.924Z,80.26
2018-10-11T19:47:09.883Z,80.17
2018-10-11T19:49:36.871Z,79.67
2018-10-11T19:52:03.812Z,79.01
2018-10-11T19:54:31.707Z,79.28
2018-10-11T19:56:59.666Z,80.09
2018-10-11T19:59:25.581Z,80.80
2018-10-11T20:01:52.637Z,81.99
2018-10-11T20:04:19.586Z,80.42
2018-10-11T20:06:46.458Z,80.36
2018-10-11T20:09:13.509Z,81.30
2018-10-11T20:11:40.416Z,81.75
2018-10-11T20:14:07.363Z,80.56
2018-10-11T20:16:34.339Z,79.59
2018-10-11T20:19:01.208Z,79.79
2018-10-11T20:21:32.174Z,80.23
2018-10-11T20:23:59.287Z,80.08
2018-10-11T20:26:26.323Z,80.49
2018-10-11T20:28:57.031Z,80.29
2018-10-11T20:31:23.964Z,81.00
2018-10-11T20:33:50.932Z,80.26
2018-10-11T20:36:20.639Z,79.67
2018-10-11T20:38:47.587Z,81.02
2018-10-11T20:41:14.518Z,79.62
2018-10-11T20:43:41.993Z,79.05
2018-10-11T20:46:08.855Z,80.85
2018-10-11T20:48:35.802Z,81.70
2018-10-11T20:51:02.758Z,81.56
2018-10-11T20:53:29.755Z,82.00
2018-10-11T20:55:56.683Z,82.29
2018-10-11T20:58:23.631Z,82.19
2018-10-11T21:00:50.524Z,81.35
2018-10-11T21:03:17.716Z,82.22
2018-10-11T21:05:44.610Z,81.26
2018-10-11T21:08:11.531Z,82.70
2018-10-11T21:10:38.426Z,82.74
2018-10-11T21:13:05.656Z,83.24
2018-10-11T21:15:33.509Z,83.47
2018-10-11T21:18:00.684Z,82.62
2018-10-11T21:20:27.687Z,84.36
2018-10-11T21:22:54.510Z,82.50
2018-10-11T21:25:21.467Z,83.41
2018-10-11T21:27:48.339Z,82.91
2018-10-11T21:30:15.210Z,82.62
2018-10-11T21:32:42.075Z,81.74
2018-10-11T21:35:08.949Z,82.32
2018-10-11T21:37:35.952Z,82.09
2018-10-11T21:40:03.019Z,86.50
2018-10-11T21:42:29.963Z,86.52
2018-10-11T21:44:56.915Z,87.73
2018-10-11T21:47:23.783Z,87.84
2018-10-11T21:49:50.710Z,87.81
2018-10-11T21:52:18.672Z,87.36
2018-10-11T21:54:45.653Z,87.05
2018-10-11T21:57:12.594Z,85.56
2018-10-11T21:59:39.504Z,86.91
2018-10-11T22:02:06.380Z,88.32
2018-10-11T22:04:37.095Z,87.46
2018-10-11T22:07:07.351Z,87.47
2018-10-11T22:09:35.247Z,87.59
2018-10-11T22:12:02.244Z,87.77
2018-10-11T22:14:29.349Z,87.07
2018-10-11T22:16:56.310Z,88.12
2018-10-11T22:19:23.514Z,84.52
2018-10-11T22:21:50.371Z,85.72
2018-10-11T22:24:20.454Z,85.67
2018-10-11T22:26:47.414Z,85.64
2018-10-11T22:29:15.406Z,84.85
2018-10-11T22:31:42.278Z,85.06
2018-10-11T22:34:09.163Z,84.56
2018-10-11T22:36:37.175Z,84.22
2018-10-11T22:39:06.651Z,84.44
2018-10-11T22:41:34.655Z,86.12
2018-10-11T22:44:01.568Z,84.99
2018-10-11T22:46:28.521Z,85.47
2018-10-11T22:48:55.427Z,84.19
2018-10-11T22:51:22.351Z,84.34
2018-10-11T22:53:49.324Z,84.13
2018-10-11T22:56:19.555Z,84.26
2018-10-11T22:58:46.511Z,85.62
2018-10-11T23:01:13.429Z,87.01
2018-10-11T23:03:40.388Z,87.57
2018-10-11T23:06:07.347Z,87.61
2018-10-11T23:08:34.211Z,88.09
2018-10-11T23:11:01.071Z,89.08
2018-10-11T23:13:27.959Z,88.45
2018-10-11T23:15:54.935Z,87.94
2018-10-11T23:18:21.934Z,88.24
2018-10-11T23:20:48.849Z,87.81
2018-10-11T23:23:16.816Z,89.46
2018-10-11T23:25:43.679Z,88.68
2018-10-11T23:28:10.615Z,89.22
2018-10-11T23:30:37.565Z,90.73
2018-10-11T23:33:08.043Z,90.10
2018-10-11T23:35:35.019Z,90.31
2018-10-11T23:38:01.981Z,91.07
2018-10-11T23:40:28.929Z,91.95
2018-10-11T23:42:55.798Z,92.19
2018-10-11T23:45:22.663Z,91.81
2018-10-11T23:47:50.563Z,91.81
2018-10-11T23:50:17.535Z,91.40
2018-10-11T23:52:44.458Z,92.29
2018-10-11T23:55:12.397Z,92.16
2018-10-11T23:57:39.281Z,92.46
